Time;durP1;ratioP1;P1;durP2;ratioP2;P2;SDS_P1;SDS_P2;PMS_P1;PMS_P2;Temp;Humidity;BMP_temperature;BMP_pressure;BME280_temperature;BME280_humidity;BME280_pressure;Samples;Min_cycle;Max_cycle;Signal;HPM_P1;HPM_P2
2022/07/24 00:00:24;;;;;;;3.08;2.45;;;16.80;99.90;;;;;;5075189;28;20104;-64
2022/07/24 00:02:50;;;;;;;2.80;2.28;;;16.80;99.90;;;;;;5075162;28;20040;-64
2022/07/24 00:05:16;;;;;;;4.75;2.25;;;16.70;99.90;;;;;;5075112;28;20115;-64
2022/07/24 00:07:43;;;;;;;3.63;2.33;;;16.80;99.90;;;;;;5073887;28;20593;-64
2022/07/24 00:10:10;;;;;;;3.80;2.30;;;16.70;99.90;;;;;;5075122;28;20170;-65
2022/07/24 00:12:36;;;;;;;3.17;2.67;;;16.70;99.90;;;;;;5074827;28;20097;-64
2022/07/24 00:15:03;;;;;;;5.78;2.53;;;16.70;99.90;;;;;;5074923;28;20032;-65
2022/07/24 00:17:29;;;;;;;5.50;2.90;;;16.70;99.90;;;;;;5073583;28;20044;-65
2022/07/24 00:19:54;;;;;;;4.03;2.47;;;16.60;99.90;;;;;;5074691;28;20355;-65
2022/07/24 00:22:20;;;;;;;3.08;2.47;;;16.60;99.90;;;;;;5075258;28;20375;-65
2022/07/24 00:24:45;;;;;;;5.35;3.13;;;16.70;99.90;;;;;;5074644;28;20058;-65
2022/07/24 00:27:11;;;;;;;6.93;3.20;;;16.60;99.90;;;;;;5074733;28;20036;-65
2022/07/24 00:29:37;;;;;;;2.80;2.55;;;16.60;99.90;;;;;;5074434;28;20052;-65
2022/07/24 00:32:03;;;;;;;4.43;2.70;;;16.60;99.90;;;;;;5074612;28;20064;-65
2022/07/24 00:34:29;;;;;;;3.20;2.47;;;16.50;99.90;;;;;;5074360;28;20035;-65
2022/07/24 00:36:55;;;;;;;3.25;2.65;;;16.50;99.90;;;;;;5074525;28;20526;-65
2022/07/24 00:39:21;;;;;;;5.10;2.63;;;16.50;99.90;;;;;;5074503;28;20082;-66
2022/07/24 00:41:46;;;;;;;5.57;2.70;;;16.50;99.90;;;;;;5074459;28;20050;-65
2022/07/24 00:44:14;;;;;;;6.32;2.67;;;16.50;99.90;;;;;;5074377;28;20444;-64
2022/07/24 00:46:42;;;;;;;3.72;2.88;;;16.50;99.90;;;;;;5073453;28;20097;-63
2022/07/24 00:49:11;;;;;;;8.88;3.10;;;16.50;99.90;;;;;;5074069;28;20040;-64
2022/07/24 00:51:36;;;;;;;4.30;3.17;;;16.50;99.90;;;;;;5074177;28;20076;-64
2022/07/24 00:54:06;;;;;;;5.47;2.60;;;16.40;99.90;;;;;;5074303;28;20436;-64
2022/07/24 00:56:32;;;;;;;4.47;2.78;;;16.40;99.90;;;;;;5074234;28;20141;-64
2022/07/24 00:59:02;;;;;;;3.45;2.78;;;16.40;99.90;;;;;;5074120;28;20044;-64
2022/07/24 01:01:28;;;;;;;3.45;3.10;;;16.40;99.90;;;;;;5074131;28;20363;-64
2022/07/24 01:03:54;;;;;;;5.97;2.97;;;16.40;99.90;;;;;;5074063;28;20911;-64
2022/07/24 01:06:20;;;;;;;5.03;2.92;;;16.40;99.90;;;;;;5073885;28;20174;-64
2022/07/24 01:08:46;;;;;;;3.55;2.67;;;16.40;99.90;;;;;;5074030;28;20036;-64
2022/07/24 01:11:12;;;;;;;4.70;2.60;;;16.30;99.90;;;;;;5073657;28;20033;-64
2022/07/24 01:13:39;;;;;;;3.58;2.60;;;16.40;99.90;;;;;;5072615;28;20043;-64
2022/07/24 01:16:05;;;;;;;6.43;2.70;;;16.40;99.90;;;;;;5073904;28;20158;-64
2022/07/24 01:18:31;;;;;;;3.13;2.83;;;16.40;99.90;;;;;;5073904;28;20037;-64
2022/07/24 01:20:57;;;;;;;4.80;3.00;;;16.40;99.90;;;;;;5073828;28;20029;-64
2022/07/24 01:23:23;;;;;;;3.33;3.03;;;16.30;99.90;;;;;;5073932;28;20474;-64
2022/07/24 01:25:49;;;;;;;3.00;2.70;;;16.30;99.90;;;;;;5073951;28;20036;-64
2022/07/24 01:28:15;;;;;;;3.58;2.70;;;16.30;99.90;;;;;;5073843;28;20539;-64
2022/07/24 01:30:41;;;;;;;4.35;2.72;;;16.40;99.90;;;;;;5073364;28;20399;-64
2022/07/24 01:33:07;;;;;;;3.80;2.70;;;16.30;99.90;;;;;;5073715;28;20102;-65
2022/07/24 01:35:32;;;;;;;5.68;2.70;;;16.30;99.90;;;;;;5074065;28;20044;-65
2022/07/24 01:37:58;;;;;;;4.78;3.08;;;16.30;99.90;;;;;;5072204;28;20045;-64
2022/07/24 01:40:24;;;;;;;5.25;2.95;;;16.30;99.90;;;;;;5072339;28;20037;-64
2022/07/24 01:42:50;;;;;;;5.95;3.10;;;16.30;99.90;;;;;;5073736;28;20438;-65
2022/07/24 01:45:16;;;;;;;4.82;2.97;;;16.30;99.90;;;;;;5073646;28;20101;-65
2022/07/24 01:47:43;;;;;;;3.40;2.33;;;16.30;99.90;;;;;;5073601;28;20406;-65
2022/07/24 01:50:10;;;;;;;4.32;3.28;;;16.40;99.90;;;;;;5073641;28;20068;-64
2022/07/24 01:52:37;;;;;;;2.85;2.45;;;16.40;99.90;;;;;;5073339;28;20123;-64
2022/07/24 01:55:03;;;;;;;3.28;2.88;;;16.40;99.90;;;;;;5073604;28;20040;-64
2022/07/24 01:57:29;;;;;;;3.22;2.92;;;16.40;99.90;;;;;;5075500;28;20032;-64
2022/07/24 01:59:55;;;;;;;3.17;2.85;;;16.40;99.90;;;;;;5077518;28;20387;-64
2022/07/24 02:02:20;;;;;;;4.55;3.17;;;16.40;99.90;;;;;;5077453;28;20047;-65
2022/07/24 02:04:46;;;;;;;3.17;2.90;;;16.40;99.90;;;;;;5077503;28;20037;-64
2022/07/24 02:07:11;;;;;;;3.03;2.83;;;16.40;99.90;;;;;;5077293;28;20040;-64
2022/07/24 02:09:37;;;;;;;4.90;3.10;;;16.40;99.90;;;;;;5077375;28;20044;-64
2022/07/24 02:12:03;;;;;;;4.32;3.40;;;16.40;99.90;;;;;;5077294;28;20036;-65
2022/07/24 02:14:29;;;;;;;5.75;3.20;;;16.40;99.90;;;;;;5077224;28;20512;-64
2022/07/24 02:16:54;;;;;;;10.43;3.90;;;16.40;99.90;;;;;;5076052;28;20076;-65
2022/07/24 02:19:20;;;;;;;3.65;2.78;;;16.30;99.90;;;;;;5077116;28;20029;-64
2022/07/24 02:21:45;;;;;;;5.15;3.40;;;16.30;99.90;;;;;;5077487;28;20387;-64
2022/07/24 02:24:11;;;;;;;4.43;3.22;;;16.40;99.90;;;;;;5076936;28;20372;-63
2022/07/24 02:26:37;;;;;;;6.72;3.55;;;16.30;99.90;;;;;;5077006;28;20052;-63
2022/07/24 02:29:03;;;;;;;4.82;3.25;;;16.40;99.90;;;;;;5076702;28;20047;-64
2022/07/24 02:31:28;;;;;;;4.22;3.42;;;16.40;99.90;;;;;;5076893;28;20052;-64
2022/07/24 02:33:54;;;;;;;3.35;3.03;;;16.40;99.90;;;;;;5076812;28;20032;-65
2022/07/24 02:36:20;;;;;;;5.15;3.33;;;16.30;99.90;;;;;;5076873;28;20479;-64
2022/07/24 02:38:45;;;;;;;6.00;3.85;;;16.30;99.90;;;;;;5075632;28;20033;-64
2022/07/24 02:41:11;;;;;;;3.58;3.28;;;16.30;99.90;;;;;;5076819;28;20047;-64
2022/07/24 02:43:37;;;;;;;4.25;3.88;;;16.30;99.90;;;;;;5076590;28;20070;-66
2022/07/24 02:46:02;;;;;;;5.07;3.92;;;16.30;99.90;;;;;;5076433;28;20379;-65
2022/07/24 02:48:28;;;;;;;5.47;4.25;;;16.30;99.90;;;;;;5076708;28;20047;-64
2022/07/24 02:50:54;;;;;;;5.22;3.60;;;16.30;99.90;;;;;;5076443;28;20390;-65
2022/07/24 02:53:20;;;;;;;3.90;3.47;;;16.30;99.90;;;;;;5076488;28;20094;-63
2022/07/24 02:55:46;;;;;;;5.00;3.88;;;16.30;99.90;;;;;;5076343;28;20372;-64
2022/07/24 02:58:11;;;;;;;5.43;4.10;;;16.20;99.90;;;;;;5076444;28;20040;-64
2022/07/24 03:00:37;;;;;;;6.50;4.07;;;16.20;99.90;;;;;;5076394;28;20044;-65
2022/07/24 03:03:03;;;;;;;5.35;4.85;;;16.30;99.90;;;;;;5076156;28;20056;-64
2022/07/24 03:05:28;;;;;;;5.03;4.25;;;16.20;99.90;;;;;;5076403;28;20123;-64
2022/07/24 03:07:54;;;;;;;4.90;4.13;;;16.20;99.90;;;;;;5075945;28;20471;-64
2022/07/24 03:10:20;;;;;;;4.72;3.63;;;16.20;99.90;;;;;;5075502;28;20032;-64
2022/07/24 03:12:46;;;;;;;6.40;3.92;;;16.20;99.90;;;;;;5076043;28;20076;-64
2022/07/24 03:15:13;;;;;;;5.35;4.50;;;16.20;99.90;;;;;;5076169;28;20036;-64
2022/07/24 03:17:47;;;;;;;5.63;4.13;;;16.20;99.90;;;;;;5076132;28;20107;-65
2022/07/24 03:20:13;;;;;;;7.90;4.65;;;16.20;99.90;;;;;;5076172;28;20040;-64
2022/07/24 03:22:38;;;;;;;5.75;5.20;;;16.20;99.90;;;;;;5075932;28;20036;-64
2022/07/24 03:25:04;;;;;;;5.22;4.72;;;16.20;99.90;;;;;;5075969;28;20040;-65
2022/07/24 03:27:29;;;;;;;4.32;3.95;;;16.20;99.90;;;;;;5075911;28;20036;-65
2022/07/24 03:29:55;;;;;;;4.75;4.10;;;16.20;99.90;;;;;;5075941;28;20114;-65
2022/07/24 03:32:21;;;;;;;5.93;4.47;;;16.20;99.90;;;;;;5075871;28;20488;-65
2022/07/24 03:34:46;;;;;;;6.55;4.78;;;16.20;99.90;;;;;;5075632;28;20032;-64
2022/07/24 03:37:12;;;;;;;7.25;5.13;;;16.10;99.90;;;;;;5075726;28;20162;-64
2022/07/24 03:39:37;;;;;;;6.25;4.70;;;16.20;99.90;;;;;;5074697;28;20418;-64
2022/07/24 03:42:03;;;;;;;4.38;3.97;;;16.20;99.90;;;;;;5075596;28;20044;-65
2022/07/24 03:44:29;;;;;;;6.18;4.68;;;16.20;99.90;;;;;;5074551;28;20036;-65
2022/07/24 03:46:54;;;;;;;8.38;5.03;;;16.20;99.90;;;;;;5075594;28;20185;-65
2022/07/24 03:49:20;;;;;;;4.68;4.18;;;16.20;99.90;;;;;;5075276;28;20426;-64
2022/07/24 03:51:45;;;;;;;6.13;5.03;;;16.20;99.90;;;;;;5075417;28;20040;-64
2022/07/24 03:54:11;;;;;;;7.68;4.85;;;16.20;99.90;;;;;;5075479;28;20116;-64
2022/07/24 03:56:37;;;;;;;5.63;5.07;;;16.20;99.90;;;;;;5073989;28;20057;-65
2022/07/24 03:59:02;;;;;;;5.85;4.93;;;16.20;99.90;;;;;;5073742;28;20048;-64
2022/07/24 04:01:28;;;;;;;5.50;4.78;;;16.20;99.90;;;;;;5075250;28;20101;-64
2022/07/24 04:03:54;;;;;;;6.32;4.85;;;16.20;99.90;;;;;;5075249;28;20048;-64
2022/07/24 04:06:19;;;;;;;5.70;5.10;;;16.20;99.90;;;;;;5075096;28;20440;-64
2022/07/24 04:08:47;;;;;;;5.25;4.72;;;16.20;99.90;;;;;;5074945;28;20044;-64
2022/07/24 04:11:12;;;;;;;5.65;5.13;;;16.30;99.90;;;;;;5075065;28;20045;-64
2022/07/24 04:13:38;;;;;;;6.30;5.18;;;16.30;99.90;;;;;;5074951;28;20036;-64
2022/07/24 04:16:04;;;;;;;8.98;4.82;;;16.30;99.90;;;;;;5074943;28;20489;-64
2022/07/24 04:18:30;;;;;;;5.28;4.78;;;16.30;99.90;;;;;;5074985;28;20368;-64
2022/07/24 04:20:56;;;;;;;5.43;4.80;;;16.30;99.90;;;;;;5074639;28;20035;-65
2022/07/24 04:23:21;;;;;;;7.38;5.30;;;16.30;99.90;;;;;;5074686;28;20040;-64
2022/07/24 04:25:47;;;;;;;5.53;4.97;;;16.30;99.90;;;;;;5074744;28;20041;-65
2022/07/24 04:28:13;;;;;;;7.00;4.93;;;16.30;99.90;;;;;;5074769;28;20448;-64
2022/07/24 04:30:39;;;;;;;5.45;4.95;;;16.30;99.90;;;;;;5074471;28;20048;-64
2022/07/24 04:33:04;;;;;;;6.15;5.07;;;16.30;99.90;;;;;;5074585;28;20044;-64
2022/07/24 04:35:31;;;;;;;6.20;5.63;;;16.30;99.90;;;;;;5074495;28;20033;-64
2022/07/24 04:37:56;;;;;;;6.32;4.55;;;16.40;99.90;;;;;;5074699;28;20043;-65
2022/07/24 04:40:22;;;;;;;6.35;5.13;;;16.30;99.90;;;;;;5074462;28;20040;-64
2022/07/24 04:42:48;;;;;;;6.07;5.20;;;16.40;99.90;;;;;;5074228;28;20032;-64
2022/07/24 04:45:13;;;;;;;6.13;5.53;;;16.40;99.90;;;;;;5074370;28;20094;-64
2022/07/24 04:47:39;;;;;;;6.05;5.40;;;16.40;99.90;;;;;;5074386;28;20036;-64
2022/07/24 04:50:05;;;;;;;6.70;5.82;;;16.50;99.90;;;;;;5074387;28;20147;-63
2022/07/24 04:52:31;;;;;;;12.88;5.43;;;16.40;99.90;;;;;;5074222;28;20041;-63
2022/07/24 04:54:57;;;;;;;9.45;5.50;;;16.40;99.90;;;;;;5074078;28;20029;-64
2022/07/24 04:57:22;;;;;;;6.57;5.22;;;16.40;99.90;;;;;;5074303;28;20069;-64
2022/07/24 04:59:48;;;;;;;9.30;5.90;;;16.40;99.90;;;;;;5074235;28;20032;-64
2022/07/24 05:02:14;;;;;;;6.10;5.50;;;16.50;99.90;;;;;;5074159;28;20497;-64
2022/07/24 05:04:40;;;;;;;5.70;5.10;;;16.50;99.90;;;;;;5074131;28;20043;-64
2022/07/24 05:07:06;;;;;;;7.88;5.38;;;16.60;99.90;;;;;;5074106;28;20036;-65
2022/07/24 05:09:32;;;;;;;8.52;5.53;;;16.70;99.90;;;;;;5073736;28;20119;-65
2022/07/24 05:11:57;;;;;;;6.03;5.32;;;16.80;99.90;;;;;;5074027;28;20037;-64
2022/07/24 05:14:23;;;;;;;6.85;5.60;;;16.90;99.90;;;;;;5073996;28;20043;-64
2022/07/24 05:16:49;;;;;;;6.40;4.97;;;17.00;99.90;;;;;;5074000;28;20032;-64
2022/07/24 05:19:14;;;;;;;5.47;4.90;;;17.20;99.90;;;;;;5072760;28;20075;-64
2022/07/24 05:21:40;;;;;;;5.93;5.32;;;17.20;99.90;;;;;;5073950;28;20036;-65
2022/07/24 05:24:06;;;;;;;8.23;5.28;;;17.30;99.90;;;;;;5073835;28;20036;-65
2022/07/24 05:26:32;;;;;;;6.18;5.10;;;17.30;99.90;;;;;;5073917;28;20040;-65
2022/07/24 05:28:59;;;;;;;7.32;5.28;;;17.30;99.90;;;;;;5072499;28;20033;-64
2022/07/24 05:31:25;;;;;;;7.70;5.47;;;17.40;99.90;;;;;;5073260;28;20055;-64
2022/07/24 05:33:50;;;;;;;7.05;6.35;;;17.40;99.90;;;;;;5073712;28;20089;-65
2022/07/24 05:36:16;;;;;;;6.68;5.43;;;17.40;99.90;;;;;;5073849;28;20045;-65
2022/07/24 05:38:43;;;;;;;5.70;5.20;;;17.50;99.90;;;;;;5073658;28;20033;-65
2022/07/24 05:41:09;;;;;;;7.38;5.32;;;17.60;99.90;;;;;;5072195;28;20541;-65
2022/07/24 05:43:35;;;;;;;7.07;5.65;;;17.60;99.90;;;;;;5073520;28;20475;-65
2022/07/24 05:46:01;;;;;;;8.55;6.05;;;17.60;99.90;;;;;;5073656;28;20040;-65
2022/07/24 05:48:26;;;;;;;6.95;6.30;;;17.70;99.90;;;;;;5073573;28;20048;-65
2022/07/24 05:50:52;;;;;;;7.30;6.45;;;17.80;99.90;;;;;;5073699;28;20051;-66
2022/07/24 05:53:18;;;;;;;6.82;6.18;;;17.80;99.90;;;;;;5073454;28;20107;-65
2022/07/24 05:55:43;;;;;;;8.40;6.78;;;17.80;99.90;;;;;;5073405;28;20032;-65
2022/07/24 05:58:09;;;;;;;17.35;6.53;;;17.80;99.90;;;;;;5073610;28;20043;-65
2022/07/24 06:00:35;;;;;;;7.45;6.55;;;17.90;99.90;;;;;;5073545;28;20032;-65
2022/07/24 06:03:00;;;;;;;9.63;6.93;;;17.90;99.90;;;;;;5073425;28;20044;-66
2022/07/24 06:05:26;;;;;;;14.07;6.75;;;18.10;99.90;;;;;;5073568;28;20051;-65
2022/07/24 06:07:51;;;;;;;7.55;6.28;;;18.30;99.90;;;;;;5073376;28;20076;-65
2022/07/24 06:10:17;;;;;;;9.75;7.18;;;18.50;99.90;;;;;;5072249;28;20393;-65
2022/07/24 06:12:43;;;;;;;8.13;6.85;;;18.60;99.90;;;;;;5073235;28;20076;-65
2022/07/24 06:15:09;;;;;;;9.63;7.57;;;18.80;99.90;;;;;;5073397;28;20036;-65
2022/07/24 06:17:34;;;;;;;8.60;7.35;;;18.80;99.90;;;;;;5073392;28;20037;-65
2022/07/24 06:20:00;;;;;;;9.35;7.75;;;18.90;99.90;;;;;;5073408;28;20083;-65
2022/07/24 06:22:26;;;;;;;11.15;7.32;;;19.00;99.90;;;;;;5073286;28;20063;-64
2022/07/24 06:24:51;;;;;;;10.18;7.30;;;19.10;99.90;;;;;;5073353;28;20045;-65
2022/07/24 06:27:17;;;;;;;9.50;7.53;;;19.30;99.90;;;;;;5073315;28;20082;-65
2022/07/24 06:29:43;;;;;;;12.13;8.15;;;19.40;99.90;;;;;;5073040;28;20498;-65
2022/07/24 06:32:11;;;;;;;;;;;19.50;99.90;;;;;;5073616;28;20049;-65
2022/07/24 06:34:37;;;;;;;11.98;8.27;;;19.70;99.90;;;;;;5073061;28;19961;-64
2022/07/24 06:37:02;;;;;;;10.93;8.25;;;19.80;99.90;;;;;;5073163;28;20170;-64
2022/07/24 06:39:28;;;;;;;12.68;9.02;;;20.00;99.90;;;;;;5073622;28;20119;-64
2022/07/24 06:41:54;;;;;;;9.35;8.35;;;20.10;99.90;;;;;;5073038;28;20048;-66
2022/07/24 06:44:19;;;;;;;13.73;8.57;;;20.20;99.90;;;;;;5075017;28;20043;-65
2022/07/24 06:46:45;;;;;;;12.75;9.15;;;20.30;99.90;;;;;;5075362;28;20178;-64
2022/07/24 06:49:11;;;;;;;10.55;9.30;;;20.40;99.90;;;;;;5076623;28;20032;-64
2022/07/24 06:51:36;;;;;;;12.43;9.50;;;20.60;99.90;;;;;;5075216;28;20071;-65
2022/07/24 06:54:02;;;;;;;10.68;9.52;;;20.60;99.90;;;;;;5076260;28;20090;-64
2022/07/24 06:56:27;;;;;;;10.07;8.82;;;20.80;99.90;;;;;;5076330;28;20037;-65
2022/07/24 06:58:53;;;;;;;14.32;9.60;;;21.10;99.90;;;;;;5076498;28;20076;-65
2022/07/24 07:01:19;;;;;;;11.75;9.32;;;21.10;99.90;;;;;;5075156;28;20037;-65
2022/07/24 07:03:44;;;;;;;13.75;9.60;;;21.40;99.90;;;;;;5076346;28;20040;-65
2022/07/24 07:06:10;;;;;;;16.17;10.07;;;21.50;99.90;;;;;;5076346;28;20094;-64
2022/07/24 07:08:36;;;;;;;12.65;9.05;;;21.70;99.90;;;;;;5076300;28;20040;-64
2022/07/24 07:11:01;;;;;;;18.73;10.27;;;21.90;99.90;;;;;;5076206;28;20437;-63
2022/07/24 07:13:27;;;;;;;10.85;8.48;;;22.10;99.90;;;;;;5074765;28;20044;-64
2022/07/24 07:15:53;;;;;;;9.75;8.77;;;22.20;99.90;;;;;;5076160;28;20040;-64
2022/07/24 07:18:18;;;;;;;11.77;9.43;;;22.30;99.90;;;;;;5075995;28;20072;-64
2022/07/24 07:20:44;;;;;;;11.68;8.43;;;22.30;99.90;;;;;;5076227;28;20032;-63
2022/07/24 07:23:09;;;;;;;12.10;8.27;;;22.30;99.90;;;;;;5075775;28;20115;-63
2022/07/24 07:25:35;;;;;;;9.48;8.48;;;22.60;99.90;;;;;;5076036;28;20391;-63
2022/07/24 07:28:01;;;;;;;10.57;8.00;;;22.90;99.90;;;;;;5076022;28;20475;-64
2022/07/24 07:30:26;;;;;;;10.23;7.18;;;23.10;99.90;;;;;;5075516;28;20141;-64
2022/07/24 07:32:52;;;;;;;12.07;7.80;;;23.50;99.90;;;;;;5074581;28;20059;-64
2022/07/24 07:35:19;;;;;;;7.68;6.97;;;23.70;99.90;;;;;;5075785;28;20085;-64
2022/07/24 07:37:46;;;;;;;6.50;5.78;;;23.90;99.90;;;;;;5075770;28;20428;-64
2022/07/24 07:40:11;;;;;;;8.43;5.63;;;24.20;99.90;;;;;;5075648;28;20059;-63
2022/07/24 07:42:37;;;;;;;9.88;4.82;;;24.30;99.90;;;;;;5075555;28;20483;-64
2022/07/24 07:45:04;;;;;;;14.05;4.95;;;24.60;99.90;;;;;;5074296;28;20047;-63
2022/07/24 07:47:29;;;;;;;8.57;4.63;;;24.40;99.90;;;;;;5075662;28;20074;-63
2022/07/24 07:49:55;;;;;;;4.38;3.97;;;24.20;99.90;;;;;;5075454;28;20049;-63
2022/07/24 07:52:21;;;;;;;3.80;3.40;;;24.10;99.90;;;;;;5075382;28;20037;-62
2022/07/24 07:54:46;;;;;;;5.93;3.20;;;23.90;99.90;;;;;;5075078;28;20043;-63
2022/07/24 07:57:12;;;;;;;3.65;3.22;;;23.90;99.90;;;;;;5075432;28;20041;-62
2022/07/24 07:59:37;;;;;;;3.88;3.20;;;23.80;99.90;;;;;;5075394;28;20040;-63
2022/07/24 08:02:03;;;;;;;4.80;2.95;;;23.90;99.90;;;;;;5075334;28;20075;-63
2022/07/24 08:04:29;;;;;;;6.28;3.70;;;23.80;99.90;;;;;;5075211;28;20531;-64
2022/07/24 08:06:55;;;;;;;3.28;2.90;;;23.80;99.90;;;;;;5074914;28;20045;-59
2022/07/24 08:09:20;;;;;;;4.72;3.47;;;24.10;99.90;;;;;;5075193;28;20040;-60
2022/07/24 08:11:46;;;;;;;4.22;3.22;;;24.60;99.90;;;;;;5074883;28;20391;-61
2022/07/24 08:14:12;;;;;;;6.85;3.17;;;25.50;99.90;;;;;;5075216;28;20040;-61
2022/07/24 08:16:37;;;;;;;5.20;3.40;;;26.60;99.90;;;;;;5074910;28;20460;-61
2022/07/24 08:19:03;;;;;;;3.83;2.92;;;27.40;99.90;;;;;;5074858;28;20044;-62
2022/07/24 08:21:29;;;;;;;4.40;3.22;;;28.90;99.90;;;;;;5075036;28;20036;-61
2022/07/24 08:23:54;;;;;;;3.60;3.13;;;28.90;99.90;;;;;;5073743;28;20037;-61
2022/07/24 08:26:20;;;;;;;5.22;3.33;;;28.40;99.90;;;;;;5074845;28;20110;-59
2022/07/24 08:28:46;;;;;;;9.13;2.92;;;28.10;99.90;;;;;;5074573;28;20467;-60
2022/07/24 08:31:13;;;;;;;7.93;3.28;;;28.40;99.90;;;;;;5073222;28;20131;-60
2022/07/24 08:33:38;;;;;;;6.25;3.20;;;28.80;99.90;;;;;;5053338;28;20064;-60
2022/07/24 08:36:04;;;;;;;4.75;2.95;;;29.00;99.90;;;;;;5054574;28;20033;-60
2022/07/24 08:38:30;;;;;;;6.35;3.08;;;29.00;99.90;;;;;;5055034;28;20037;-61
2022/07/24 08:40:55;;;;;;;3.17;2.53;;;28.60;99.90;;;;;;5054587;28;20116;-61
2022/07/24 08:43:21;;;;;;;3.25;2.95;;;28.40;99.90;;;;;;5054504;28;20037;-61
2022/07/24 08:45:48;;;;;;;3.38;2.90;;;28.00;99.90;;;;;;5053357;28;20056;-62
2022/07/24 08:48:13;;;;;;;6.93;2.70;;;28.10;99.90;;;;;;5054440;28;20041;-61
2022/07/24 08:50:42;;;;;;;2.92;2.55;;;28.60;99.90;;;;;;5052905;28;20127;-61
2022/07/24 08:53:08;;;;;;;5.70;2.90;;;29.90;99.90;;;;;;5054320;28;20361;-61
2022/07/24 08:55:34;;;;;;;3.92;2.92;;;29.90;99.90;;;;;;5054234;28;20040;-61
2022/07/24 08:58:00;;;;;;;5.55;3.00;;;29.60;99.90;;;;;;5054065;28;20116;-61
2022/07/24 09:00:28;;;;;;;4.43;3.00;;;29.10;99.90;;;;;;5054198;28;20041;-62
2022/07/24 09:02:54;;;;;;;4.65;2.47;;;29.10;99.90;;;;;;5054115;28;20040;-63
2022/07/24 09:05:20;;;;;;;4.95;2.60;;;29.50;99.90;;;;;;5054153;28;20044;-63
2022/07/24 09:07:45;;;;;;;4.88;2.70;;;29.80;99.90;;;;;;5053428;28;20043;-62
2022/07/24 09:10:15;;;;;;;4.15;2.88;;;29.50;99.90;;;;;;5053966;28;20399;-62
2022/07/24 09:12:47;;;;;;;4.45;2.83;;;29.20;99.90;;;;;;5066208;28;20041;-61
2022/07/24 09:15:22;;;;;;;5.75;3.13;;;28.90;99.90;;;;;;5073695;28;20532;-61
2022/07/24 09:17:56;;;;;;;3.33;2.75;;;28.50;99.90;;;;;;5074015;28;20086;-62
2022/07/24 09:20:23;;;;;;;3.05;2.42;;;28.60;99.90;;;;;;5073047;28;20120;-61
2022/07/24 09:22:50;;;;;;;5.90;3.17;;;28.30;99.90;;;;;;5074209;28;20080;-62
2022/07/24 09:25:16;;;;;;;4.00;2.88;;;28.60;99.90;;;;;;5059872;28;20376;-61
2022/07/24 09:27:49;;;;;;;3.10;2.80;;;28.70;99.90;;;;;;5054092;28;20502;-61
2022/07/24 09:30:25;;;;;;;4.10;2.83;;;29.20;99.90;;;;;;5053520;28;20107;-61
2022/07/24 09:32:52;;;;;;;4.10;2.28;;;30.70;99.30;;;;;;5053631;28;20045;-62
2022/07/24 09:35:22;;;;;;;8.50;2.75;;;31.30;99.40;;;;;;5053768;28;20115;-62
2022/07/24 09:37:55;;;;;;;5.82;2.92;;;30.70;98.80;;;;;;5053765;28;20045;-62
2022/07/24 09:40:21;;;;;;;4.85;2.40;;;30.60;99.10;;;;;;5053520;28;20120;-62
2022/07/24 09:42:47;;;;;;;5.53;2.53;;;31.70;98.80;;;;;;5053709;28;20120;-62
2022/07/24 09:45:13;;;;;;;9.07;2.15;;;32.40;98.20;;;;;;5053699;28;20187;-62
2022/07/24 09:47:39;;;;;;;6.22;2.42;;;32.60;98.00;;;;;;5053706;28;20450;-62
2022/07/24 09:50:13;;;;;;;4.97;2.30;;;33.40;97.60;;;;;;5053434;28;20090;-62
2022/07/24 09:52:42;;;;;;;4.07;2.30;;;33.90;96.80;;;;;;5053506;28;20048;-62
2022/07/24 09:55:23;;;;;;;4.90;2.30;;;33.60;96.80;;;;;;5053516;28;20049;-61
2022/07/24 09:57:49;;;;;;;5.85;2.28;;;33.00;96.10;;;;;;5053614;28;20041;-62
2022/07/24 10:00:16;;;;;;;2.28;1.85;;;32.10;96.60;;;;;;5053434;28;20043;-62
2022/07/24 10:02:44;;;;;;;4.90;1.75;;;32.00;96.70;;;;;;5053792;28;20064;-62
2022/07/24 10:05:13;;;;;;;8.85;2.15;;;32.10;96.70;;;;;;5053573;28;20068;-61
2022/07/24 10:07:39;;;;;;;11.23;1.98;;;31.80;95.90;;;;;;5053207;28;20117;-62
2022/07/24 10:10:06;;;;;;;5.03;1.90;;;30.90;97.10;;;;;;5053340;28;20079;-63
2022/07/24 10:12:33;;;;;;;4.25;2.40;;;30.90;97.30;;;;;;5053202;28;20084;-62
2022/07/24 10:15:00;;;;;;;6.18;2.20;;;30.80;97.90;;;;;;5053378;28;20044;-61
2022/07/24 10:17:41;;;;;;;4.80;2.28;;;30.10;97.30;;;;;;5053563;28;20033;-62
2022/07/24 10:20:08;;;;;;;2.78;1.88;;;30.10;97.80;;;;;;5057224;28;20047;-62
2022/07/24 10:22:50;;;;;;;6.23;2.13;;;30.10;98.40;;;;;;5057563;28;20036;-62
2022/07/24 10:25:20;;;;;;;6.00;2.15;;;29.80;97.80;;;;;;5057182;28;20044;-62
2022/07/24 10:27:51;;;;;;;10.07;2.20;;;29.90;98.40;;;;;;5056997;28;20471;-63
2022/07/24 10:30:17;;;;;;;3.47;1.92;;;29.40;98.00;;;;;;5056711;28;20072;-62
2022/07/24 10:32:45;;;;;;;5.40;2.00;;;29.60;99.00;;;;;;5056810;28;20483;-62
2022/07/24 10:35:19;;;;;;;3.50;2.25;;;29.70;98.50;;;;;;5056981;28;20403;-62
2022/07/24 10:38:12;;;;;;;3.95;2.10;;;30.00;99.50;;;;;;5056955;28;20036;-62
2022/07/24 10:40:53;;;;;;;10.82;2.35;;;30.50;98.40;;;;;;5056881;28;20029;-61
2022/07/24 10:43:21;;;;;;;8.82;2.25;;;30.40;97.80;;;;;;5056891;28;20052;-62
2022/07/24 10:45:55;;;;;;;5.72;2.25;;;30.60;97.80;;;;;;5056508;28;20048;-62
2022/07/24 10:48:21;;;;;;;3.67;2.00;;;30.50;97.20;;;;;;5056695;28;20061;-61
2022/07/24 10:50:59;;;;;;;13.50;2.40;;;32.50;97.60;;;;;;5056621;28;20041;-62
2022/07/24 10:53:37;;;;;;;5.47;2.00;;;33.10;96.20;;;;;;5056525;28;20088;-61
2022/07/24 10:56:22;;;;;;;;;;;32.10;96.30;;;;;;5055838;28;20045;-62
2022/07/24 10:59:09;;;;;;;9.40;2.38;;;31.80;96.00;;;;;;5056432;28;19959;-62
2022/07/24 11:01:37;;;;;;;8.20;2.42;;;31.10;96.30;;;;;;5056438;28;20392;-62
2022/07/24 11:04:18;;;;;;;6.32;2.03;;;30.60;96.80;;;;;;5056433;28;20048;-62
2022/07/24 11:06:48;;;;;;;4.95;1.92;;;30.50;97.30;;;;;;5056409;28;20045;-61
2022/07/24 11:09:15;;;;;;;8.65;1.80;;;31.10;96.30;;;;;;5056241;28;20098;-62
2022/07/24 11:12:03;;;;;;;5.15;2.17;;;31.70;96.10;;;;;;5056311;28;20037;-62
2022/07/24 11:14:37;;;;;;;5.10;2.10;;;31.20;96.60;;;;;;5054802;28;20495;-61
2022/07/24 11:17:41;;;;;;;4.22;1.85;;;32.50;96.40;;;;;;5056127;28;20044;-62
2022/07/24 11:20:12;;;;;;;3.35;1.85;;;32.90;95.30;;;;;;5054964;28;20064;-62
2022/07/24 11:22:55;;;;;;;4.45;1.63;;;33.80;95.10;;;;;;5056019;28;20041;-63
2022/07/24 11:25:23;;;;;;;2.47;1.95;;;34.80;96.10;;;;;;5055741;28;20091;-63
2022/07/24 11:27:58;;;;;;;2.95;2.03;;;34.70;95.30;;;;;;5056014;28;20430;-62
2022/07/24 11:30:27;;;;;;;2.05;1.88;;;35.00;94.00;;;;;;5054930;28;20049;-62
2022/07/24 11:32:53;;;;;;;2.35;1.90;;;35.20;93.20;;;;;;5055787;28;20432;-61
2022/07/24 11:35:31;;;;;;;2.78;1.70;;;35.60;93.80;;;;;;5055851;28;20099;-62
2022/07/24 11:37:59;;;;;;;6.45;2.00;;;35.80;92.90;;;;;;5055850;28;20136;-61
2022/07/24 11:40:25;;;;;;;4.40;1.92;;;34.60;93.10;;;;;;5055583;28;20475;-62
2022/07/24 11:42:58;;;;;;;6.57;2.42;;;35.30;93.30;;;;;;5055754;28;20036;-61
2022/07/24 11:45:24;;;;;;;10.02;2.47;;;35.50;93.20;;;;;;5055386;28;20113;-62
2022/07/24 11:47:50;;;;;;;8.85;1.80;;;35.50;93.00;;;;;;5055659;28;20487;-62
2022/07/24 11:50:20;;;;;;;5.57;1.88;;;35.50;92.60;;;;;;5054197;28;20048;-61
2022/07/24 11:52:46;;;;;;;5.15;2.20;;;35.40;92.30;;;;;;5055464;28;20037;-62
2022/07/24 11:55:14;;;;;;;6.63;2.47;;;34.50;92.40;;;;;;5055515;28;20544;-62
2022/07/24 11:57:42;;;;;;;13.05;2.00;;;34.80;92.40;;;;;;5055458;28;20116;-63
2022/07/24 12:00:10;;;;;;;;;;;35.00;92.80;;;;;;5055470;28;20037;-61
2022/07/24 12:02:37;;;;;;;8.82;1.90;;;35.20;91.30;;;;;;5055397;28;20298;-63
2022/07/24 12:05:03;;;;;;;13.65;2.50;;;34.90;92.00;;;;;;5054189;28;20080;-62
2022/07/24 12:07:31;;;;;;;7.75;1.70;;;35.50;91.50;;;;;;5055107;28;20471;-62
2022/07/24 12:09:59;;;;;;;4.68;2.13;;;34.90;91.40;;;;;;5054827;28;20037;-62
2022/07/24 12:12:38;;;;;;;12.27;2.53;;;35.20;91.30;;;;;;5055048;28;20120;-62
2022/07/24 12:15:08;;;;;;;8.73;2.05;;;35.00;91.50;;;;;;5055122;28;20033;-61
2022/07/24 12:17:57;;;;;;;4.13;1.77;;;34.90;91.80;;;;;;5054844;28;20045;-61
2022/07/24 12:20:25;;;;;;;3.55;1.90;;;34.90;91.30;;;;;;5053733;28;20474;-61
2022/07/24 12:22:52;;;;;;;4.38;1.88;;;35.00;91.50;;;;;;5054843;28;20040;-61
2022/07/24 12:25:18;;;;;;;5.23;2.03;;;35.40;91.90;;;;;;5054631;28;20487;-62
2022/07/24 12:27:47;;;;;;;9.25;2.05;;;35.40;91.70;;;;;;5054869;28;20044;-62
2022/07/24 12:30:26;;;;;;;7.47;2.17;;;35.20;90.90;;;;;;5054472;28;20056;-61
2022/07/24 12:32:54;;;;;;;5.63;1.50;;;35.20;91.10;;;;;;5054851;28;20136;-63
2022/07/24 12:35:20;;;;;;;13.25;2.40;;;35.40;90.20;;;;;;5054677;28;20036;-62
2022/07/24 12:37:46;;;;;;;5.22;2.13;;;35.50;90.60;;;;;;5054667;28;20037;-62
2022/07/24 12:40:27;;;;;;;2.42;1.65;;;36.00;90.80;;;;;;5054390;28;20036;-62
2022/07/24 12:42:57;;;;;;;4.85;2.13;;;35.80;91.00;;;;;;5053662;28;20040;-62
2022/07/24 12:45:23;;;;;;;3.47;1.80;;;35.30;90.30;;;;;;5054541;28;20068;-62